createdAt,value
2019-01-11T00:00:54.562Z,6.37
2019-01-11T00:03:36.005Z,6.37
2019-01-11T00:06:17.334Z,6.80
2019-01-11T00:08:58.625Z,6.50
2019-01-11T00:11:39.966Z,6.67
2019-01-11T00:14:21.352Z,6.10
2019-01-11T00:17:01.845Z,6.13
2019-01-11T00:19:43.158Z,6.57
2019-01-11T00:25:07.493Z,6.53
2019-01-11T00:27:48.772Z,6.90
2019-01-11T00:33:24.281Z,7.07
2019-01-11T00:36:04.798Z,6.90
2019-01-11T00:38:46.182Z,6.97
2019-01-11T00:41:27.408Z,6.50
2019-01-11T00:47:02.803Z,6.27
2019-01-11T00:49:43.347Z,6.70
2019-01-11T00:52:23.853Z,6.23
2019-01-11T00:55:06.007Z,6.03
2019-01-11T00:57:47.470Z,6.13
2019-01-11T01:00:28.520Z,6.67
2019-01-11T01:03:09.874Z,6.30
2019-01-11T01:05:50.390Z,6.63
2019-01-11T01:08:31.474Z,5.97
2019-01-11T01:11:12.338Z,6.93
2019-01-11T01:13:52.836Z,6.47
2019-01-11T01:16:34.140Z,6.93
2019-01-11T01:19:19.969Z,6.70
2019-01-11T01:21:57.482Z,7.00
2019-01-11T01:24:38.854Z,7.40
2019-01-11T01:27:19.890Z,7.83
2019-01-11T01:30:01.164Z,8.07
2019-01-11T01:32:40.305Z,8.07
2019-01-11T01:35:21.121Z,8.57
2019-01-11T01:38:02.247Z,9.30
2019-01-11T01:40:42.818Z,9.93
2019-01-11T01:43:24.113Z,9.70
2019-01-11T01:46:05.515Z,10.10
2019-01-11T01:48:46.823Z,10.23
2019-01-11T01:51:28.132Z,11.47
2019-01-11T01:54:09.505Z,12.40
2019-01-11T01:56:50.018Z,12.50
2019-01-11T01:59:31.347Z,12.40
2019-01-11T02:02:00.131Z,13.90
2019-01-11T02:04:48.157Z,14.97
2019-01-11T02:07:36.213Z,16.80
2019-01-11T02:10:24.265Z,17.07
2019-01-11T02:13:12.397Z,17.17
2019-01-11T02:16:00.440Z,17.07
2019-01-11T02:18:48.501Z,17.43
2019-01-11T02:24:26.332Z,17.23
2019-01-11T02:33:08.346Z,18.70
2019-01-11T02:35:49.286Z,19.20
2019-01-11T02:38:32.335Z,19.20
2019-01-11T02:44:03.817Z,19.00
2019-01-11T02:46:45.116Z,19.67
2019-01-11T02:49:26.314Z,20.73
2019-01-11T02:52:07.722Z,20.93
2019-01-11T02:54:48.553Z,21.70
2019-01-11T02:57:29.652Z,21.73
2019-01-11T03:00:10.940Z,21.73
2019-01-11T03:02:52.086Z,22.27
2019-01-11T03:05:31.147Z,22.47
2019-01-11T03:08:19.191Z,22.00
2019-01-11T03:11:07.322Z,21.23
2019-01-11T03:13:55.374Z,23.57
2019-01-11T03:16:43.404Z,22.13
2019-01-11T03:19:31.525Z,21.37
2019-01-11T03:22:19.639Z,23.17
2019-01-11T03:25:08.866Z,21.20
2019-01-11T03:27:56.897Z,21.50
2019-01-11T03:30:44.962Z,21.33
2019-01-11T03:36:22.931Z,21.23
2019-01-11T03:39:03.453Z,20.90
2019-01-11T03:41:46.646Z,20.80
2019-01-11T03:44:27.865Z,20.33
2019-01-11T03:47:06.931Z,19.83
2019-01-11T03:49:55.247Z,20.10
2019-01-11T03:53:04.606Z,20.23
2019-01-11T03:55:52.712Z,19.00
2019-01-11T03:58:40.805Z,19.30
2019-01-11T04:01:28.861Z,19.13
2019-01-11T04:04:16.903Z,19.17
2019-01-11T04:07:24.901Z,19.27
2019-01-11T04:10:13.345Z,20.07
2019-01-11T04:12:54.738Z,19.23
2019-01-11T04:15:35.877Z,18.50
2019-01-11T04:18:17.243Z,20.70
2019-01-11T04:20:58.160Z,20.33
2019-01-11T04:23:39.565Z,18.63
2019-01-11T04:26:20.054Z,19.07
2019-01-11T04:29:01.366Z,20.17
2019-01-11T04:31:42.663Z,19.60
2019-01-11T04:34:23.972Z,19.87
2019-01-11T04:37:05.410Z,19.73
2019-01-11T04:39:46.495Z,20.93
2019-01-11T04:42:27.688Z,20.37
2019-01-11T04:50:56.430Z,18.40
2019-01-11T04:56:31.991Z,17.87
2019-01-11T04:59:14.347Z,18.17
2019-01-11T05:04:49.646Z,17.77
2019-01-11T05:13:00.702Z,17.50
2019-01-11T05:15:48.823Z,17.90
2019-01-11T05:18:36.911Z,19.30
2019-01-11T05:24:21.699Z,18.63
2019-01-11T05:27:09.800Z,21.50
2019-01-11T05:29:57.855Z,20.90
2019-01-11T05:32:45.877Z,20.53
2019-01-11T05:35:27.165Z,20.27
2019-01-11T05:40:58.990Z,22.03
2019-01-11T05:43:40.072Z,20.20
2019-01-11T05:46:21.261Z,21.50
2019-01-11T05:49:02.584Z,22.60
2019-01-11T05:51:43.177Z,23.87
2019-01-11T05:54:24.520Z,25.50
2019-01-11T05:57:05.750Z,24.03
2019-01-11T05:59:46.969Z,24.23
2019-01-11T06:02:28.158Z,26.40
2019-01-11T06:05:09.383Z,25.63
2019-01-11T06:07:49.961Z,26.60
2019-01-11T06:10:31.298Z,24.93
2019-01-11T06:13:12.326Z,25.50
2019-01-11T06:18:36.401Z,26.17
2019-01-11T06:26:55.471Z,27.70
2019-01-11T06:29:36.039Z,27.60
2019-01-11T06:32:17.177Z,28.90
2019-01-11T06:34:58.111Z,29.73
2019-01-11T06:37:38.659Z,29.50
2019-01-11T06:40:20.043Z,29.30
2019-01-11T06:43:03.463Z,28.87
2019-01-11T06:45:48.988Z,30.87
2019-01-11T06:48:37.052Z,27.43
2019-01-11T06:51:25.153Z,29.53
2019-01-11T06:54:13.209Z,27.07
2019-01-11T06:57:01.315Z,29.10
2019-01-11T06:59:49.374Z,29.50
2019-01-11T07:02:37.499Z,27.87
2019-01-11T07:05:18.718Z,29.63
2019-01-11T07:08:00.272Z,31.50
2019-01-11T07:10:29.154Z,30.70
2019-01-11T07:12:57.874Z,28.77
2019-01-11T07:15:27.016Z,29.00
2019-01-11T07:17:56.483Z,29.37
2019-01-11T07:20:26.013Z,31.30
2019-01-11T07:22:55.406Z,30.23
2019-01-11T07:25:24.196Z,28.87
2019-01-11T07:27:52.970Z,29.73
2019-01-11T07:30:22.153Z,28.90
2019-01-11T07:32:50.954Z,28.83
2019-01-11T07:35:19.765Z,26.30
2019-01-11T07:37:48.533Z,27.53
2019-01-11T07:40:17.322Z,26.73
2019-01-11T07:42:46.047Z,29.20
2019-01-11T07:45:14.777Z,29.13
2019-01-11T07:47:43.506Z,26.27
2019-01-11T07:50:12.424Z,26.40
2019-01-11T07:52:41.316Z,25.57
2019-01-11T07:55:11.021Z,26.77
2019-01-11T07:57:39.795Z,28.77
2019-01-11T08:00:10.507Z,27.13
2019-01-11T08:02:39.246Z,24.70
2019-01-11T08:05:08.265Z,24.73
2019-01-11T08:07:37.042Z,25.87
2019-01-11T08:10:08.906Z,29.97
2019-01-11T08:12:37.753Z,27.10
2019-01-11T08:15:09.544Z,24.70
2019-01-11T08:17:38.422Z,24.87
2019-01-11T08:20:08.190Z,26.63
2019-01-11T08:22:36.991Z,25.43
2019-01-11T08:25:06.256Z,25.07
2019-01-11T08:27:35.091Z,23.93
2019-01-11T08:30:07.013Z,23.73
2019-01-11T08:32:35.737Z,24.70
2019-01-11T08:35:06.739Z,26.40
2019-01-11T08:37:35.526Z,22.60
2019-01-11T08:40:07.066Z,21.87
2019-01-11T08:42:35.803Z,21.60
2019-01-11T08:45:07.956Z,21.60
2019-01-11T08:47:36.818Z,22.73
2019-01-11T08:50:08.590Z,21.30
2019-01-11T08:52:37.620Z,21.80
2019-01-11T08:55:06.462Z,22.17
2019-01-11T08:57:35.441Z,22.30
2019-01-11T09:00:07.275Z,21.67
2019-01-11T09:02:36.094Z,20.93
2019-01-11T09:05:06.814Z,21.00
2019-01-11T09:07:35.696Z,23.73
2019-01-11T09:10:10.383Z,22.37
2019-01-11T09:12:39.118Z,21.17
2019-01-11T09:15:08.642Z,23.73
2019-01-11T09:17:37.604Z,22.77
2019-01-11T09:20:06.846Z,21.97
2019-01-11T09:22:35.794Z,24.67
2019-01-11T09:25:05.648Z,24.63
2019-01-11T09:27:34.673Z,24.90
2019-01-11T09:30:06.329Z,23.50
2019-01-11T09:32:35.915Z,23.57
2019-01-11T09:35:04.766Z,26.10
2019-01-11T09:37:33.694Z,26.00
2019-01-11T09:40:04.082Z,27.17
2019-01-11T09:42:32.877Z,29.73
2019-01-11T09:45:01.592Z,27.20
2019-01-11T09:47:30.376Z,28.67
2019-01-11T09:49:59.089Z,28.80
2019-01-11T09:52:27.865Z,27.43
2019-01-11T09:54:56.635Z,29.83
2019-01-11T09:57:25.329Z,28.73
2019-01-11T09:59:54.120Z,26.93
2019-01-11T10:02:22.915Z,27.30
2019-01-11T10:04:51.799Z,26.83
2019-01-11T10:07:20.532Z,29.60
2019-01-11T10:09:49.263Z,27.93
2019-01-11T10:12:17.970Z,29.50
2019-01-11T10:14:46.713Z,29.10
2019-01-11T10:17:15.531Z,28.80
2019-01-11T10:19:44.514Z,27.93
2019-01-11T10:22:13.470Z,27.53
2019-01-11T10:24:42.411Z,29.90
2019-01-11T10:27:11.207Z,28.97
2019-01-11T10:29:40.048Z,29.47
2019-01-11T10:32:09.009Z,29.00
2019-01-11T10:34:37.962Z,27.20
2019-01-11T10:37:06.829Z,30.50
2019-01-11T10:39:38.693Z,31.33
2019-01-11T10:42:10.156Z,31.20
2019-01-11T10:44:38.361Z,32.10
2019-01-11T10:47:07.122Z,29.50
2019-01-11T10:49:35.874Z,29.67
2019-01-11T10:52:04.743Z,30.00
2019-01-11T10:54:33.434Z,31.40
2019-01-11T10:57:02.255Z,30.13
2019-01-11T10:59:30.985Z,32.10
2019-01-11T11:01:59.944Z,33.33
2019-01-11T11:04:32.559Z,29.67
2019-01-11T11:07:01.447Z,31.80
2019-01-11T11:09:30.316Z,28.43
2019-01-11T11:11:59.390Z,28.37
2019-01-11T11:14:28.448Z,31.37
2019-01-11T11:16:57.180Z,30.40
2019-01-11T11:19:26.098Z,30.00
2019-01-11T11:21:54.874Z,32.23
2019-01-11T11:24:23.726Z,29.37
2019-01-11T11:26:52.521Z,30.87
2019-01-11T11:29:21.276Z,29.33
2019-01-11T11:31:50.002Z,34.87
2019-01-11T11:34:24.037Z,32.87
2019-01-11T11:36:52.765Z,31.07
2019-01-11T11:39:21.589Z,33.23
2019-01-11T11:41:50.330Z,32.07
2019-01-11T11:44:19.255Z,32.70
2019-01-11T11:46:48.030Z,31.53
2019-01-11T11:49:16.796Z,30.97
2019-01-11T11:51:45.515Z,33.23
2019-01-11T11:54:14.286Z,32.90
2019-01-11T11:56:43.029Z,30.27
2019-01-11T11:59:11.793Z,30.83
2019-01-11T12:01:40.749Z,32.10
2019-01-11T12:04:09.553Z,31.10
2019-01-11T12:06:38.326Z,31.47
2019-01-11T12:09:08.109Z,30.53
2019-01-11T12:11:36.889Z,34.17
2019-01-11T12:14:05.729Z,33.63
2019-01-11T12:16:34.510Z,30.37
2019-01-11T12:19:03.369Z,32.63
2019-01-11T12:21:32.411Z,30.70
2019-01-11T12:24:01.267Z,32.50
2019-01-11T12:26:29.992Z,29.97
2019-01-11T12:28:59.710Z,33.63
2019-01-11T12:31:28.438Z,30.20
2019-01-11T12:33:57.173Z,30.53
2019-01-11T12:36:25.886Z,29.70
2019-01-11T12:38:54.607Z,31.27
2019-01-11T12:41:23.389Z,29.77
2019-01-11T12:43:52.093Z,28.43
2019-01-11T12:46:20.858Z,28.63
2019-01-11T12:48:49.635Z,28.40
2019-01-11T12:51:18.481Z,29.17
2019-01-11T12:53:47.267Z,27.57
2019-01-11T12:56:15.962Z,27.73
2019-01-11T12:58:44.759Z,27.47
2019-01-11T13:01:13.616Z,27.03
2019-01-11T13:03:42.365Z,27.53
2019-01-11T13:06:11.077Z,27.03
2019-01-11T13:08:39.860Z,28.00
2019-01-11T13:11:08.594Z,27.47
2019-01-11T13:13:37.293Z,27.37
2019-01-11T13:16:06.098Z,26.63
2019-01-11T13:18:34.972Z,27.17
2019-01-11T13:21:03.846Z,28.87
2019-01-11T13:23:32.926Z,24.77
2019-01-11T13:26:01.766Z,25.90
2019-01-11T13:28:30.460Z,24.10
2019-01-11T13:30:59.311Z,22.97
2019-01-11T13:33:28.039Z,23.63
2019-01-11T13:35:56.864Z,24.17
2019-01-11T13:38:25.565Z,23.50
2019-01-11T13:40:54.371Z,22.90
2019-01-11T13:43:23.299Z,22.73
2019-01-11T13:45:52.204Z,20.93
2019-01-11T13:48:20.989Z,21.00
2019-01-11T13:50:49.869Z,20.83
2019-01-11T13:53:18.759Z,21.33
2019-01-11T13:55:47.350Z,18.17
2019-01-11T13:58:16.138Z,14.93
2019-01-11T14:00:44.935Z,14.93
2019-01-11T14:03:13.695Z,13.07
2019-01-11T14:05:42.526Z,12.60
2019-01-11T14:08:11.314Z,12.60
2019-01-11T14:10:40.080Z,12.63
2019-01-11T14:13:09.124Z,12.30
2019-01-11T14:15:38.330Z,12.27
2019-01-11T14:18:07.170Z,11.40
2019-01-11T14:20:35.881Z,10.67
2019-01-11T14:23:04.961Z,11.70
2019-01-11T14:25:33.716Z,11.87
2019-01-11T14:28:03.341Z,12.60
2019-01-11T14:30:32.109Z,11.33
2019-01-11T14:33:00.834Z,11.07
2019-01-11T14:35:29.593Z,10.70
2019-01-11T14:37:58.323Z,9.80
2019-01-11T14:40:27.101Z,10.77
2019-01-11T14:42:55.889Z,10.93
2019-01-11T14:45:25.001Z,10.13
2019-01-11T14:47:53.925Z,10.07
2019-01-11T14:50:22.682Z,10.47
2019-01-11T14:52:51.426Z,11.13
2019-01-11T14:55:20.214Z,11.67
2019-01-11T14:57:49.050Z,10.97
2019-01-11T15:00:20.121Z,12.47
2019-01-11T15:02:49.154Z,11.83
2019-01-11T15:05:19.020Z,11.63
2019-01-11T15:07:47.813Z,11.20
2019-01-11T15:10:16.822Z,11.07
2019-01-11T15:12:47.565Z,11.47
2019-01-11T15:15:16.681Z,10.67
2019-01-11T15:17:45.455Z,10.80
2019-01-11T15:20:16.819Z,10.57
2019-01-11T15:22:46.733Z,11.60
2019-01-11T15:25:15.594Z,11.17
2019-01-11T15:27:44.372Z,11.17
2019-01-11T15:30:15.647Z,10.87
2019-01-11T15:32:44.510Z,11.50
2019-01-11T15:35:13.380Z,10.87
2019-01-11T15:37:42.231Z,10.63
2019-01-11T15:40:17.305Z,10.53
2019-01-11T15:42:46.005Z,9.87
2019-01-11T15:45:14.781Z,9.73
2019-01-11T15:47:43.475Z,9.20
2019-01-11T15:50:18.074Z,9.00
2019-01-11T15:52:46.774Z,8.07
2019-01-11T15:55:15.518Z,8.40
2019-01-11T15:57:44.306Z,7.73
2019-01-11T16:00:18.889Z,7.03
2019-01-11T16:02:47.822Z,6.67
2019-01-11T16:05:16.645Z,5.47
2019-01-11T16:07:45.495Z,5.73
2019-01-11T16:10:17.014Z,5.60
2019-01-11T16:12:46.191Z,5.60
2019-01-11T16:15:33.266Z,6.00
2019-01-11T16:18:05.156Z,6.30
2019-01-11T16:20:33.848Z,6.27
2019-01-11T16:23:02.622Z,6.60
2019-01-11T16:25:31.380Z,7.93
2019-01-11T16:28:00.129Z,8.67
2019-01-11T16:30:28.897Z,9.07
2019-01-11T16:32:57.634Z,9.87
2019-01-11T16:35:26.422Z,9.03
2019-01-11T16:37:55.153Z,9.40
2019-01-11T16:40:23.834Z,8.73
2019-01-11T16:42:52.569Z,8.03
2019-01-11T16:45:21.336Z,8.40
2019-01-11T16:47:50.134Z,8.20
2019-01-11T16:50:19.085Z,7.70
2019-01-11T16:52:47.879Z,7.60
2019-01-11T16:55:16.574Z,6.93
2019-01-11T16:57:45.280Z,7.93
2019-01-11T17:00:18.417Z,7.90
2019-01-11T17:02:47.210Z,9.13
2019-01-11T17:05:16.063Z,8.63
2019-01-11T17:07:44.768Z,9.70
2019-01-11T17:10:13.719Z,9.97
2019-01-11T17:12:42.473Z,8.63
2019-01-11T17:15:14.639Z,9.90
2019-01-11T17:17:43.622Z,9.60
2019-01-11T17:20:14.936Z,9.73
2019-01-11T17:22:44.468Z,10.10
2019-01-11T17:25:14.089Z,9.70
2019-01-11T17:27:43.082Z,10.77
2019-01-11T17:30:14.481Z,9.03
2019-01-11T17:32:43.376Z,8.40
2019-01-11T17:35:12.358Z,7.87
2019-01-11T17:37:41.186Z,7.63
2019-01-11T17:40:11.667Z,7.57
2019-01-11T17:42:40.473Z,7.93
2019-01-11T17:45:12.072Z,8.00
2019-01-11T17:47:41.402Z,8.83
2019-01-11T17:50:14.076Z,10.73
2019-01-11T17:52:43.201Z,8.73
2019-01-11T17:55:12.415Z,9.63
2019-01-11T17:57:41.293Z,9.07
2019-01-11T18:00:12.757Z,9.43
2019-01-11T18:02:41.555Z,9.70
2019-01-11T18:05:12.529Z,10.60
2019-01-11T18:07:41.450Z,10.07
2019-01-11T18:10:11.312Z,10.27
2019-01-11T18:12:40.201Z,11.30
2019-01-11T18:15:14.742Z,10.83
2019-01-11T18:17:43.525Z,10.67
2019-01-11T18:20:18.344Z,10.23
2019-01-11T18:22:47.196Z,11.33
2019-01-11T18:25:15.969Z,10.30
2019-01-11T18:27:44.886Z,11.17
2019-01-11T18:30:15.723Z,11.00
2019-01-11T18:32:45.020Z,10.80
2019-01-11T18:35:14.413Z,10.03
2019-01-11T18:37:43.361Z,11.00
2019-01-11T18:40:23.185Z,11.50
2019-01-11T18:42:52.093Z,11.87
2019-01-11T18:45:20.869Z,11.33
2019-01-11T18:47:49.576Z,11.10
2019-01-11T18:50:20.338Z,11.53
2019-01-11T18:52:49.123Z,11.77
2019-01-11T18:55:17.977Z,13.10
2019-01-11T18:57:47.196Z,13.43
2019-01-11T19:00:18.065Z,14.87
2019-01-11T19:02:47.056Z,14.43
2019-01-11T19:05:16.076Z,16.43
2019-01-11T19:07:46.121Z,16.00
2019-01-11T19:10:17.361Z,15.50
2019-01-11T19:12:46.260Z,13.70
2019-01-11T19:15:20.580Z,15.60
2019-01-11T19:17:49.321Z,14.17
2019-01-11T19:20:23.150Z,15.10
2019-01-11T19:22:52.007Z,15.10
2019-01-11T19:25:20.872Z,14.27
2019-01-11T19:27:49.723Z,14.20
2019-01-11T19:30:23.585Z,14.33
2019-01-11T19:32:52.438Z,13.07
2019-01-11T19:35:21.328Z,12.57
2019-01-11T19:37:50.182Z,12.43
2019-01-11T19:40:19.074Z,13.47
2019-01-11T19:42:48.008Z,13.97
2019-01-11T19:45:18.341Z,12.03
2019-01-11T19:47:47.350Z,12.50
2019-01-11T19:50:21.152Z,12.63
2019-01-11T19:52:50.314Z,11.90
2019-01-11T19:55:19.536Z,11.37
2019-01-11T19:57:48.266Z,10.37
2019-01-11T20:00:22.546Z,11.07
2019-01-11T20:02:51.987Z,11.23
2019-01-11T20:05:21.295Z,10.60
2019-01-11T20:07:50.163Z,12.10
2019-01-11T20:10:22.216Z,10.53
2019-01-11T20:12:51.162Z,11.13
2019-01-11T20:15:20.028Z,11.77
2019-01-11T20:17:48.933Z,11.37
2019-01-11T20:20:17.811Z,10.33
2019-01-11T20:22:46.672Z,10.33
2019-01-11T20:25:21.049Z,10.03
2019-01-11T20:27:50.109Z,9.33
2019-01-11T20:30:20.949Z,10.10
2019-01-11T20:32:49.814Z,9.70
2019-01-11T20:35:18.649Z,10.00
2019-01-11T20:37:47.749Z,9.77
2019-01-11T20:40:16.993Z,10.67
2019-01-11T20:42:45.790Z,10.27
2019-01-11T20:45:16.625Z,10.57
2019-01-11T20:47:45.421Z,10.50
2019-01-11T20:50:17.271Z,10.60
2019-01-11T20:52:46.317Z,11.60
2019-01-11T20:55:15.249Z,11.97
2019-01-11T20:57:44.446Z,13.53
2019-01-11T21:00:19.310Z,12.47
2019-01-11T21:02:48.219Z,13.90
2019-01-11T21:05:17.558Z,12.17
2019-01-11T21:07:46.312Z,13.23
2019-01-11T21:10:15.310Z,13.93
2019-01-11T21:12:44.088Z,13.20
2019-01-11T21:15:18.261Z,13.80
2019-01-11T21:17:47.154Z,15.73
2019-01-11T21:20:17.805Z,14.70
2019-01-11T21:22:46.959Z,16.93
2019-01-11T21:25:17.636Z,16.07
2019-01-11T21:27:46.512Z,16.67
2019-01-11T21:30:32.244Z,18.10
2019-01-11T21:33:01.171Z,17.07
2019-01-11T21:35:30.003Z,17.53
2019-01-11T21:37:58.690Z,15.03
2019-01-11T21:40:27.437Z,16.20
2019-01-11T21:42:56.266Z,15.77
2019-01-11T21:45:25.219Z,14.50
2019-01-11T21:47:53.961Z,14.30
2019-01-11T21:50:23.587Z,15.23
2019-01-11T21:52:52.415Z,15.13
2019-01-11T21:55:21.310Z,15.40
2019-01-11T21:57:50.149Z,16.00
2019-01-11T22:00:24.876Z,16.40
2019-01-11T22:02:53.563Z,16.30
2019-01-11T22:05:22.437Z,17.20
2019-01-11T22:07:51.130Z,17.53
2019-01-11T22:10:20.043Z,19.50
2019-01-11T22:12:49.165Z,18.80
2019-01-11T22:15:18.777Z,17.13
2019-01-11T22:17:47.470Z,17.17
2019-01-11T22:20:17.260Z,16.53
2019-01-11T22:22:46.189Z,18.43
2019-01-11T22:25:16.273Z,17.37
2019-01-11T22:27:44.971Z,15.33
2019-01-11T22:30:15.925Z,15.80
2019-01-11T22:32:44.704Z,16.43
2019-01-11T22:35:13.489Z,15.93
2019-01-11T22:37:42.282Z,16.90
2019-01-11T22:40:22.086Z,14.00
2019-01-11T22:42:53.124Z,12.63
2019-01-11T22:45:21.931Z,13.40
2019-01-11T22:47:50.696Z,12.73
2019-01-11T22:50:19.487Z,12.47
2019-01-11T22:52:48.319Z,12.50
2019-01-11T22:55:18.213Z,11.40
2019-01-11T22:57:47.037Z,11.17
2019-01-11T23:00:21.847Z,11.23
2019-01-11T23:02:52.010Z,11.37
2019-01-11T23:05:20.806Z,11.63
2019-01-11T23:07:49.581Z,10.37
2019-01-11T23:10:24.239Z,11.40
2019-01-11T23:12:55.955Z,13.17
2019-01-11T23:15:24.790Z,12.10
2019-01-11T23:17:53.676Z,13.13
2019-01-11T23:20:22.371Z,13.30
2019-01-11T23:22:51.908Z,14.33
2019-01-11T23:25:20.742Z,15.43
2019-01-11T23:27:49.488Z,13.17
2019-01-11T23:30:18.331Z,12.40
2019-01-11T23:32:47.041Z,12.67
2019-01-11T23:35:15.748Z,12.63
2019-01-11T23:37:44.474Z,12.97
2019-01-11T23:40:14.205Z,11.53
2019-01-11T23:42:43.043Z,12.63
2019-01-11T23:45:12.285Z,11.80
2019-01-11T23:47:40.976Z,12.07
2019-01-11T23:50:12.954Z,11.30
2019-01-11T23:52:41.893Z,11.53
2019-01-11T23:55:11.254Z,10.57
2019-01-11T23:57:39.962Z,10.40
